Time;durP1;ratioP1;P1;durP2;ratioP2;P2;SDS_P1;SDS_P2;PMS_P1;PMS_P2;Temp;Humidity;BMP_temperature;BMP_pressure;BME280_temperature;BME280_humidity;BME280_pressure;Samples;Min_cycle;Max_cycle;Signal;HPM_P1;HPM_P2
2022/06/04 00:01:57;;;;;;;13.93;6.53;;;;;;;;;;5073597;28;20556;-70
2022/06/04 00:04:25;;;;;;;14.88;6.43;;;;;;;;;;5076472;28;20491;-70
2022/06/04 00:06:52;;;;;;;18.30;7.60;;;;;;;;;;5072588;28;20049;-70
2022/06/04 00:09:21;;;;;;;13.80;7.50;;;;;;;;;;5077258;28;20067;-70
2022/06/04 00:17:20;;;;;;;15.00;6.82;;;;;;;;;;5072271;28;20057;-70
2022/06/04 00:19:49;;;;;;;15.63;6.40;;;;;;;;;;5075133;28;20068;-70
2022/06/04 00:22:17;;;;;;;14.68;6.22;;;;;;;;;;5073037;28;20055;-70
2022/06/04 00:24:45;;;;;;;16.13;6.50;;;;;;;;;;5072617;28;20118;-70
2022/06/04 00:27:15;;;;;;;10.38;5.55;;;;;;;;;;5074613;28;20578;-70
2022/06/04 00:29:42;;;;;;;13.30;6.00;;;;;;;;;;5073532;28;20045;-70
2022/06/04 00:32:10;;;;;;;15.80;6.22;;;;;;;;;;5074065;28;20536;-70
2022/06/04 00:34:37;;;;;;;12.32;5.40;;;;;;;;;;5076809;28;20047;-70
2022/06/04 00:37:06;;;;;;;17.48;5.57;;;;;;;;;;5071754;28;20072;-70
2022/06/04 00:39:33;;;;;;;16.35;5.65;;;;;;;;;;5071362;28;20048;-70
2022/06/04 00:42:03;;;;;;;17.90;6.15;;;;;;;;;;5070565;28;20121;-70
2022/06/04 00:45:03;;;;;;;17.35;6.28;;;;;;;;;;5067242;28;20056;-70
2022/06/04 00:47:31;;;;;;;18.45;5.57;;;;;;;;;;5068607;28;20053;-70
2022/06/04 00:49:58;;;;;;;16.70;5.68;;;;;;;;;;5075074;28;20059;-70
2022/06/04 00:52:27;;;;;;;14.95;6.00;;;;;;;;;;5076900;28;20060;-70
2022/06/04 00:54:57;;;;;;;16.00;5.57;;;;;;;;;;5070942;28;20055;-70
2022/06/04 00:57:32;;;;;;;13.23;5.35;;;;;;;;;;5068334;28;20056;-70
2022/06/04 01:00:03;;;;;;;13.05;5.43;;;;;;;;;;5075762;28;20052;-70
2022/06/04 01:02:34;;;;;;;13.55;5.03;;;;;;;;;;5074670;28;20059;-70
2022/06/04 01:05:07;;;;;;;17.55;5.20;;;;;;;;;;5069498;28;20111;-70
2022/06/04 01:07:34;;;;;;;;;;;;;;;;;;5066426;28;20453;-70
2022/06/04 01:10:19;;;;;;;20.42;4.57;;;;;;;;;;5073657;28;19994;-70
2022/06/04 01:12:58;;;;;;;11.88;4.47;;;;;;;;;;5070615;28;20951;-70
2022/06/04 01:15:31;;;;;;;14.32;4.53;;;;;;;;;;5075286;28;20051;-70
2022/06/04 01:18:04;;;;;;;14.80;4.60;;;;;;;;;;5077896;28;20457;-70
2022/06/04 01:20:38;;;;;;;19.17;5.28;;;;;;;;;;5073330;28;20064;-70
2022/06/04 01:23:20;;;;;;;12.10;4.75;;;;;;;;;;5071823;28;20052;-70
2022/06/04 01:25:53;;;;;;;14.65;4.55;;;;;;;;;;5070520;28;20104;-70
2022/06/04 01:28:21;;;;;;;14.27;5.28;;;;;;;;;;5070056;28;20048;-70
2022/06/04 01:30:50;;;;;;;11.77;5.05;;;;;;;;;;5071477;28;20047;-70
2022/06/04 01:33:21;;;;;;;14.65;4.80;;;;;;;;;;5071986;28;20052;-70
2022/06/04 01:35:51;;;;;;;15.68;5.20;;;;;;;;;;5073632;28;20044;-70
2022/06/04 01:38:22;;;;;;;12.30;4.80;;;;;;;;;;5074814;28;20081;-70
2022/06/04 01:41:07;;;;;;;13.55;5.30;;;;;;;;;;5074668;28;20075;-70
2022/06/04 01:43:38;;;;;;;13.93;5.30;;;;;;;;;;5070932;28;20055;-70
2022/06/04 01:46:08;;;;;;;14.52;5.30;;;;;;;;;;5069592;28;20125;-70
2022/06/04 01:48:38;;;;;;;14.48;5.47;;;;;;;;;;5070577;28;20056;-70
2022/06/04 01:51:06;;;;;;;13.25;5.25;;;;;;;;;;5069104;28;20122;-70
2022/06/04 01:53:38;;;;;;;12.63;5.32;;;;;;;;;;5069648;28;20049;-70
2022/06/04 01:56:08;;;;;;;13.57;5.38;;;;;;;;;;5075868;28;20041;-70
2022/06/04 01:58:39;;;;;;;14.65;5.18;;;;;;;;;;5074909;28;20656;-70
2022/06/04 02:01:08;;;;;;;12.50;4.72;;;;;;;;;;5071156;28;20064;-70
2022/06/04 02:03:39;;;;;;;13.60;5.10;;;;;;;;;;5076683;28;20109;-70
2022/06/04 02:06:08;;;;;;;11.10;5.03;;;;;;;;;;5076167;28;20397;-70
2022/06/04 02:08:38;;;;;;;11.20;4.90;;;;;;;;;;5077940;28;20512;-70
2022/06/04 02:11:08;;;;;;;14.20;4.82;;;;;;;;;;5073567;28;20052;-70
2022/06/04 02:13:38;;;;;;;11.85;5.28;;;;;;;;;;5068286;28;20059;-70
2022/06/04 02:16:08;;;;;;;12.30;5.00;;;;;;;;;;5081222;28;20105;-70
2022/06/04 02:18:35;;;;;;;10.73;4.72;;;;;;;;;;5068457;28;20550;-70
2022/06/04 02:21:02;;;;;;;10.32;5.00;;;;;;;;;;5068215;28;20053;-70
2022/06/04 02:23:30;;;;;;;12.70;5.15;;;;;;;;;;5070637;28;20120;-70
2022/06/04 02:25:58;;;;;;;10.35;5.10;;;;;;;;;;5069723;28;20515;-70
2022/06/04 02:28:25;;;;;;;8.10;4.63;;;;;;;;;;5071538;28;20817;-70
2022/06/04 02:30:58;;;;;;;12.50;5.20;;;;;;;;;;5075580;28;20056;-70
2022/06/04 02:33:32;;;;;;;8.57;4.47;;;;;;;;;;5070105;28;20449;-70
2022/06/04 02:35:59;;;;;;;;;;;;;;;;;;5074954;28;20127;-70
2022/06/04 02:38:27;;;;;;;13.02;5.03;;;;;;;;;;5069672;28;21629;-70
2022/06/04 02:40:57;;;;;;;10.80;4.45;;;;;;;;;;5074523;28;20044;-70
2022/06/04 02:43:29;;;;;;;11.57;4.75;;;;;;;;;;5077718;28;20048;-70
2022/06/04 02:46:01;;;;;;;10.25;4.78;;;;;;;;;;5069352;28;20048;-70
2022/06/04 02:48:30;;;;;;;11.25;4.18;;;;;;;;;;5075993;28;20056;-70
2022/06/04 02:51:00;;;;;;;9.02;4.35;;;;;;;;;;5077191;28;20160;-70
2022/06/04 02:53:28;;;;;;;11.52;4.30;;;;;;;;;;5078440;28;20074;-70
2022/06/04 02:55:58;;;;;;;14.20;4.90;;;;;;;;;;5076246;28;20053;-70
2022/06/04 02:58:26;;;;;;;10.55;4.15;;;;;;;;;;5069366;28;20148;-70
2022/06/04 03:00:56;;;;;;;11.85;4.22;;;;;;;;;;5075397;28;20055;-70
2022/06/04 03:03:25;;;;;;;15.55;4.60;;;;;;;;;;5081266;28;20064;-70
2022/06/04 03:05:54;;;;;;;12.23;4.40;;;;;;;;;;5069686;28;20048;-70
2022/06/04 03:08:21;;;;;;;9.32;3.75;;;;;;;;;;5077538;28;20052;-70
2022/06/04 03:10:49;;;;;;;9.63;4.40;;;;;;;;;;5073931;28;20139;-70
2022/06/04 03:13:16;;;;;;;9.60;4.97;;;;;;;;;;5072909;28;20055;-70
2022/06/04 03:15:43;;;;;;;8.75;4.40;;;;;;;;;;5075319;28;20052;-70
2022/06/04 03:18:10;;;;;;;8.55;4.47;;;;;;;;;;5074039;28;20044;-70
2022/06/04 03:20:39;;;;;;;8.82;4.60;;;;;;;;;;5078011;28;20584;-70
2022/06/04 03:23:06;;;;;;;9.25;4.63;;;;;;;;;;5076030;28;20052;-70
2022/06/04 03:25:34;;;;;;;9.15;4.53;;;;;;;;;;5074505;28;20063;-70
2022/06/04 03:28:01;;;;;;;10.65;4.90;;;;;;;;;;5072448;28;20060;-70
2022/06/04 03:30:29;;;;;;;5.90;4.43;;;;;;;;;;5076420;28;20518;-70
2022/06/04 03:32:56;;;;;;;8.88;4.15;;;;;;;;;;5083847;28;20067;-70
2022/06/04 03:35:24;;;;;;;12.18;4.68;;;;;;;;;;5079742;28;20052;-70
2022/06/04 03:37:53;;;;;;;8.07;3.88;;;;;;;;;;5078910;28;20056;-70
2022/06/04 03:40:20;;;;;;;9.75;4.63;;;;;;;;;;5073447;28;20056;-70
2022/06/04 03:42:50;;;;;;;10.38;4.65;;;;;;;;;;5077509;28;20605;-70
2022/06/04 03:45:18;;;;;;;11.10;4.50;;;;;;;;;;5074866;28;20064;-70
2022/06/04 03:47:45;;;;;;;9.32;4.88;;;;;;;;;;5070809;28;20059;-70
2022/06/04 03:50:14;;;;;;;11.63;4.85;;;;;;;;;;5078323;28;20052;-70
2022/06/04 03:52:42;;;;;;;9.40;5.10;;;;;;;;;;5072212;28;20118;-70
2022/06/04 03:55:11;;;;;;;10.77;5.70;;;;;;;;;;5075070;28;20056;-70
2022/06/04 03:57:39;;;;;;;9.10;5.40;;;;;;;;;;5070937;28;20137;-70
2022/06/04 04:00:08;;;;;;;9.45;5.70;;;;;;;;;;5072372;28;20136;-70
2022/06/04 04:02:36;;;;;;;9.20;6.18;;;;;;;;;;5075726;28;20170;-70
2022/06/04 04:05:03;;;;;;;10.57;6.72;;;;;;;;;;5074346;28;20080;-70
2022/06/04 04:07:31;;;;;;;10.40;6.13;;;;;;;;;;5080256;28;20045;-70
2022/06/04 04:09:58;;;;;;;12.50;6.03;;;;;;;;;;5076927;28;20067;-70
2022/06/04 04:12:27;;;;;;;8.35;5.45;;;;;;;;;;5072058;28;20056;-70
2022/06/04 04:14:54;;;;;;;12.57;5.88;;;;;;;;;;5069165;28;20122;-70
2022/06/04 04:17:22;;;;;;;14.73;6.45;;;;;;;;;;5070292;28;20044;-70
2022/06/04 04:19:49;;;;;;;11.13;5.95;;;;;;;;;;5073549;28;20066;-70
2022/06/04 04:22:17;;;;;;;8.48;5.65;;;;;;;;;;5071784;28;20055;-70
2022/06/04 04:24:44;;;;;;;9.30;5.65;;;;;;;;;;5071113;28;20059;-70
2022/06/04 04:27:12;;;;;;;9.35;5.30;;;;;;;;;;5069596;28;20071;-70
2022/06/04 04:29:41;;;;;;;10.35;5.03;;;;;;;;;;5069181;28;20084;-70
2022/06/04 04:32:09;;;;;;;10.65;5.13;;;;;;;;;;5071215;28;20052;-70
2022/06/04 04:34:36;;;;;;;9.95;5.38;;;;;;;;;;5069980;28;20549;-70
2022/06/04 04:37:03;;;;;;;13.68;5.20;;;;;;;;;;5069370;28;20066;-70
2022/06/04 04:39:31;;;;;;;9.90;4.82;;;;;;;;;;5070036;28;20522;-70
2022/06/04 04:41:58;;;;;;;9.38;4.22;;;;;;;;;;5072963;28;20055;-70
2022/06/04 04:44:25;;;;;;;6.20;3.78;;;;;;;;;;5069122;28;20055;-70
2022/06/04 04:46:54;;;;;;;8.23;3.78;;;;;;;;;;5070422;28;20375;-70
2022/06/04 04:49:23;;;;;;;12.75;4.05;;;;;;;;;;5069066;28;20052;-70
2022/06/04 04:51:51;;;;;;;8.23;3.95;;;;;;;;;;5072172;28;20054;-70
2022/06/04 04:54:19;;;;;;;8.65;3.72;;;;;;;;;;5068529;28;20068;-70
2022/06/04 04:56:46;;;;;;;9.90;3.65;;;;;;;;;;5068919;28;20059;-70
2022/06/04 04:59:14;;;;;;;8.88;3.80;;;;;;;;;;5069107;28;20057;-70
2022/06/04 05:01:41;;;;;;;10.18;3.85;;;;;;;;;;5068938;28;20097;-70
2022/06/04 05:04:09;;;;;;;6.78;4.00;;;;;;;;;;5072249;28;20052;-70
2022/06/04 05:06:36;;;;;;;7.05;4.07;;;;;;;;;;5073593;28;20114;-70
2022/06/04 05:09:04;;;;;;;9.20;3.80;;;;;;;;;;5069526;28;20056;-70
2022/06/04 05:11:33;;;;;;;6.28;3.40;;;;;;;;;;5067773;28;20054;-70
2022/06/04 05:14:01;;;;;;;8.55;3.80;;;;;;;;;;5070127;28;20640;-70
2022/06/04 05:16:29;;;;;;;7.07;3.63;;;;;;;;;;5070374;28;20043;-70
2022/06/04 05:18:56;;;;;;;9.95;4.25;;;;;;;;;;5069467;28;20425;-70
2022/06/04 05:21:26;;;;;;;9.32;4.10;;;;;;;;;;5069084;28;20052;-70
2022/06/04 05:23:55;;;;;;;9.55;3.78;;;;;;;;;;5071975;28;20051;-70
2022/06/04 05:26:23;;;;;;;7.63;3.92;;;;;;;;;;5069936;28;20060;-70
2022/06/04 05:28:50;;;;;;;7.75;3.80;;;;;;;;;;5071559;28;20059;-70
2022/06/04 05:31:17;;;;;;;10.75;4.07;;;;;;;;;;5069008;28;20052;-70
2022/06/04 05:33:45;;;;;;;7.88;3.75;;;;;;;;;;5068457;28;20102;-70
2022/06/04 05:36:12;;;;;;;10.82;4.03;;;;;;;;;;5069434;28;20048;-70
2022/06/04 05:38:41;;;;;;;6.63;3.60;;;;;;;;;;5070637;28;20048;-70
2022/06/04 05:41:09;;;;;;;9.45;3.63;;;;;;;;;;5066580;28;20064;-70
2022/06/04 05:43:39;;;;;;;7.30;3.72;;;;;;;;;;5068707;28;20055;-70
2022/06/04 05:46:07;;;;;;;7.78;3.80;;;;;;;;;;5068642;28;20593;-70
2022/06/04 05:48:37;;;;;;;7.60;3.50;;;;;;;;;;5070515;28;20052;-70
2022/06/04 05:51:04;;;;;;;8.07;3.42;;;;;;;;;;5070894;28;21433;-70
2022/06/04 05:53:31;;;;;;;5.78;3.50;;;;;;;;;;5071522;28;20056;-70
2022/06/04 05:56:00;;;;;;;7.18;3.80;;;;;;;;;;5068136;28;20055;-70
2022/06/04 05:58:27;;;;;;;6.13;3.33;;;;;;;;;;5067432;28;20121;-70
2022/06/04 06:00:59;;;;;;;6.90;3.75;;;;;;;;;;5069702;28;20060;-70
2022/06/04 06:03:27;;;;;;;6.50;3.47;;;;;;;;;;5072601;28;20056;-70
2022/06/04 06:05:54;;;;;;;12.52;3.58;;;;;;;;;;5073961;28;20056;-70
2022/06/04 06:08:21;;;;;;;4.70;3.05;;;;;;;;;;5079014;28;20124;-70
2022/06/04 06:10:48;;;;;;;9.60;3.33;;;;;;;;;;5075331;28;20044;-70
2022/06/04 06:13:17;;;;;;;7.97;3.33;;;;;;;;;;5073158;28;20055;-70
2022/06/04 06:15:44;;;;;;;8.00;3.38;;;;;;;;;;5075768;28;20052;-70
2022/06/04 06:18:12;;;;;;;11.63;3.35;;;;;;;;;;5078418;28;20051;-70
2022/06/04 06:20:43;;;;;;;4.72;3.05;;;;;;;;;;5071985;28;20056;-70
2022/06/04 06:23:10;;;;;;;9.82;3.40;;;;;;;;;;5070689;28;20044;-70
2022/06/04 06:25:38;;;;;;;8.63;2.97;;;;;;;;;;5072479;28;20059;-70
2022/06/04 06:28:07;;;;;;;8.02;2.95;;;;;;;;;;5071610;28;20135;-70
2022/06/04 06:30:36;;;;;;;6.78;3.13;;;;;;;;;;5072730;28;20051;-70
2022/06/04 06:33:03;;;;;;;6.82;2.85;;;;;;;;;;5072076;28;20130;-70
2022/06/04 06:35:31;;;;;;;6.60;3.20;;;;;;;;;;5078919;28;20136;-70
2022/06/04 06:37:58;;;;;;;6.65;3.50;;;;;;;;;;5074832;28;20127;-70
2022/06/04 06:40:25;;;;;;;7.32;3.53;;;;;;;;;;5077942;28;20052;-70
2022/06/04 06:42:53;;;;;;;8.20;3.90;;;;;;;;;;5073048;28;20056;-70
2022/06/04 06:45:20;;;;;;;8.43;3.42;;;;;;;;;;5079717;28;20104;-70
2022/06/04 06:47:49;;;;;;;7.95;3.20;;;;;;;;;;5077956;28;20048;-70
2022/06/04 06:50:17;;;;;;;7.57;2.83;;;;;;;;;;5079032;28;20050;-70
2022/06/04 06:52:44;;;;;;;10.00;2.83;;;;;;;;;;5081316;28;20062;-70
2022/06/04 06:55:11;;;;;;;5.55;2.97;;;;;;;;;;5077260;28;20040;-70
2022/06/04 06:57:39;;;;;;;6.28;3.05;;;;;;;;;;5074762;28;20049;-70
2022/06/04 07:00:07;;;;;;;10.77;2.97;;;;;;;;;;5073446;28;20051;-70
2022/06/04 07:02:34;;;;;;;9.50;2.72;;;;;;;;;;5076124;28;20068;-70
2022/06/04 07:05:03;;;;;;;6.90;2.80;;;;;;;;;;5075646;28;20048;-70
2022/06/04 07:07:30;;;;;;;7.55;2.75;;;;;;;;;;5082621;28;21023;-70
2022/06/04 07:09:57;;;;;;;6.47;2.67;;;;;;;;;;5081807;28;20052;-70
2022/06/04 07:12:24;;;;;;;8.00;3.08;;;;;;;;;;5078432;28;20048;-70
2022/06/04 07:14:51;;;;;;;6.63;2.70;;;;;;;;;;5078726;28;20048;-70
2022/06/04 07:17:19;;;;;;;6.88;2.72;;;;;;;;;;5080415;28;20045;-70
2022/06/04 07:19:46;;;;;;;6.25;2.80;;;;;;;;;;5085726;28;20517;-70
2022/06/04 07:22:14;;;;;;;5.57;2.60;;;;;;;;;;5077194;28;20052;-70
2022/06/04 07:24:41;;;;;;;6.10;2.50;;;;;;;;;;5081665;28;20098;-70
2022/06/04 07:27:09;;;;;;;4.63;2.40;;;;;;;;;;5072512;28;20064;-70
2022/06/04 07:29:36;;;;;;;8.23;2.75;;;;;;;;;;5073328;28;20044;-70
2022/06/04 07:32:04;;;;;;;6.03;2.75;;;;;;;;;;5083827;28;20056;-70
2022/06/04 07:34:31;;;;;;;9.05;3.13;;;;;;;;;;5080887;28;20106;-70
2022/06/04 07:36:59;;;;;;;7.18;2.90;;;;;;;;;;5081379;28;20047;-70
2022/06/04 07:39:28;;;;;;;7.68;3.35;;;;;;;;;;5076569;28;20060;-70
2022/06/04 07:41:55;;;;;;;5.50;2.88;;;;;;;;;;5079976;28;20125;-70
2022/06/04 07:44:24;;;;;;;5.47;3.00;;;;;;;;;;5071773;28;20723;-70
2022/06/04 07:46:51;;;;;;;7.80;2.80;;;;;;;;;;5072493;28;20048;-70
2022/06/04 07:49:19;;;;;;;9.27;2.90;;;;;;;;;;5069016;28;20056;-70
2022/06/04 07:51:47;;;;;;;7.05;3.45;;;;;;;;;;5069913;28;20184;-70
2022/06/04 07:54:15;;;;;;;8.20;3.25;;;;;;;;;;5070974;28;20056;-70
2022/06/04 07:56:44;;;;;;;6.47;2.88;;;;;;;;;;5071953;28;20054;-70
2022/06/04 07:59:13;;;;;;;8.85;2.63;;;;;;;;;;5070522;28;20041;-70
2022/06/04 08:01:40;;;;;;;9.48;3.35;;;;;;;;;;5078595;28;20078;-70
2022/06/04 08:04:09;;;;;;;7.85;2.90;;;;;;;;;;5073449;28;20048;-70
2022/06/04 08:06:36;;;;;;;8.25;3.25;;;;;;;;;;5076687;28;20109;-70
2022/06/04 08:09:04;;;;;;;6.38;2.60;;;;;;;;;;5075890;28;20044;-70
2022/06/04 08:11:35;;;;;;;4.90;2.72;;;;;;;;;;5075106;28;20533;-70
2022/06/04 08:14:09;;;;;;;5.28;2.55;;;;;;;;;;5072621;28;21374;-70
2022/06/04 08:16:37;;;;;;;4.88;2.70;;;;;;;;;;5072985;28;20122;-70
2022/06/04 08:19:05;;;;;;;4.78;2.30;;;;;;;;;;5067970;28;20048;-70
2022/06/04 08:21:33;;;;;;;5.75;2.40;;;;;;;;;;5075242;28;20060;-70
2022/06/04 08:24:00;;;;;;;6.88;3.05;;;;;;;;;;5072283;28;20498;-70
2022/06/04 08:26:28;;;;;;;8.10;3.10;;;;;;;;;;5073337;28;20109;-70
2022/06/04 08:28:55;;;;;;;6.97;2.60;;;;;;;;;;5071956;28;20159;-70
2022/06/04 08:31:24;;;;;;;6.55;2.70;;;;;;;;;;5081032;28;20052;-70
2022/06/04 08:33:51;;;;;;;10.98;2.92;;;;;;;;;;5069860;28;20048;-70
2022/06/04 08:36:19;;;;;;;5.25;2.80;;;;;;;;;;5075440;28;20048;-70
2022/06/04 08:38:46;;;;;;;7.78;3.00;;;;;;;;;;5070210;28;20082;-70
2022/06/04 08:41:21;;;;;;;7.20;3.13;;;;;;;;;;5075307;28;20055;-70
2022/06/04 08:43:52;;;;;;;7.18;2.75;;;;;;;;;;5068380;28;20510;-70
2022/06/04 08:46:22;;;;;;;5.30;2.55;;;;;;;;;;5072496;28;20209;-70
2022/06/04 08:48:51;;;;;;;5.22;2.60;;;;;;;;;;5080271;28;20040;-70
2022/06/04 08:51:21;;;;;;;5.40;2.67;;;;;;;;;;5076471;28;20051;-70
2022/06/04 08:53:51;;;;;;;6.50;2.70;;;;;;;;;;5076369;28;20048;-70
2022/06/04 08:59:13;;;;;;;7.82;2.70;;;;;;;;;;5070885;28;20211;-70
2022/06/04 09:01:43;;;;;;;4.95;2.70;;;;;;;;;;5077462;28;20048;-70
2022/06/04 09:04:15;;;;;;;7.72;2.88;;;;;;;;;;5068636;28;20052;-70
2022/06/04 09:06:47;;;;;;;9.73;2.73;;;;;;;;;;5073204;28;21602;-70
2022/06/04 09:09:16;;;;;;;7.97;2.65;;;;;;;;;;5064886;28;20294;-70
2022/06/04 09:11:48;;;;;;;8.77;2.72;;;;;;;;;;5065591;28;20048;-70
2022/06/04 09:14:22;;;;;;;7.80;2.88;;;;;;;;;;5064595;28;20040;-70
2022/06/04 09:16:52;;;;;;;6.45;3.03;;;;;;;;;;5064817;28;20109;-70
2022/06/04 09:19:23;;;;;;;6.03;2.72;;;;;;;;;;5068538;28;20051;-70
2022/06/04 09:21:51;;;;;;;7.05;2.90;;;;;;;;;;5067713;28;20535;-70
2022/06/04 09:24:18;;;;;;;7.35;3.03;;;;;;;;;;5066365;28;20059;-70
2022/06/04 09:26:49;;;;;;;6.47;3.10;;;;;;;;;;5068370;28;20052;-70
2022/06/04 09:29:26;;;;;;;5.20;2.85;;;;;;;;;;5071141;28;20053;-70
2022/06/04 09:31:58;;;;;;;7.32;2.67;;;;;;;;;;5070242;28;20051;-70
2022/06/04 09:34:29;;;;;;;5.88;2.67;;;;;;;;;;5070434;28;20063;-70
2022/06/04 09:36:56;;;;;;;6.38;2.80;;;;;;;;;;5068695;28;20117;-70
2022/06/04 09:39:24;;;;;;;6.03;2.55;;;;;;;;;;5073272;28;20097;-70
2022/06/04 09:41:52;;;;;;;4.88;2.50;;;;;;;;;;5071877;28;21086;-70
2022/06/04 09:44:20;;;;;;;5.60;2.40;;;;;;;;;;5074181;28;20582;-70
2022/06/04 09:46:49;;;;;;;7.15;2.58;;;;;;;;;;5078733;28;20052;-70
2022/06/04 09:49:25;;;;;;;8.52;3.10;;;;;;;;;;5080995;28;20162;-70
2022/06/04 09:51:54;;;;;;;6.15;2.53;;;;;;;;;;5068837;28;20058;-70
2022/06/04 09:54:23;;;;;;;8.98;2.97;;;;;;;;;;5071918;28;20048;-70
2022/06/04 09:56:53;;;;;;;5.78;2.95;;;;;;;;;;5070603;28;20056;-70
2022/06/04 09:59:24;;;;;;;7.47;2.50;;;;;;;;;;5066996;28;20101;-70
2022/06/04 10:01:55;;;;;;;4.90;2.55;;;;;;;;;;5077899;28;20508;-70
2022/06/04 10:04:23;;;;;;;6.65;2.60;;;;;;;;;;5078819;28;20047;-70
2022/06/04 10:06:51;;;;;;;8.35;2.78;;;;;;;;;;5078454;28;20045;-70
2022/06/04 10:12:08;;;;;;;7.72;2.60;;;;;;;;;;5080749;28;20191;-70
2022/06/04 10:14:37;;;;;;;5.18;3.17;;;;;;;;;;5073301;28;20050;-70
2022/06/04 10:17:05;;;;;;;6.40;2.35;;;;;;;;;;5076204;28;20143;-70
2022/06/04 10:19:33;;;;;;;6.75;2.33;;;;;;;;;;5081253;28;20479;-70
2022/06/04 10:22:05;;;;;;;5.28;2.20;;;;;;;;;;5087568;28;20052;-70
2022/06/04 10:24:42;;;;;;;5.57;2.40;;;;;;;;;;5073975;28;20132;-70
2022/06/04 10:27:22;;;;;;;4.68;2.30;;;;;;;;;;5080155;28;20136;-70
2022/06/04 10:29:59;;;;;;;5.95;2.47;;;;;;;;;;5085272;28;20054;-70
2022/06/04 10:32:30;;;;;;;6.00;2.65;;;;;;;;;;5075756;28;20145;-70
2022/06/04 10:35:02;;;;;;;11.18;2.83;;;;;;;;;;5073754;28;20139;-70
2022/06/04 10:37:35;;;;;;;7.22;3.10;;;;;;;;;;5070448;28;20052;-70
2022/06/04 10:40:02;;;;;;;;;;;;;;;;;;5086480;28;20048;-70
2022/06/04 10:42:35;;;;;;;6.82;2.63;;;;;;;;;;5080211;28;19926;-70
2022/06/04 10:45:16;;;;;;;6.25;2.65;;;;;;;;;;5072829;28;20048;-70
2022/06/04 10:47:47;;;;;;;8.57;2.80;;;;;;;;;;5068293;28;20052;-70
2022/06/04 10:50:20;;;;;;;7.47;2.58;;;;;;;;;;5078166;28;20036;-70
2022/06/04 10:52:50;;;;;;;6.63;2.78;;;;;;;;;;5071773;28;20056;-70
2022/06/04 10:55:23;;;;;;;8.10;3.25;;;;;;;;;;5080410;28;20386;-70
2022/06/04 10:57:54;;;;;;;9.13;2.97;;;;;;;;;;5078168;28;20052;-70
2022/06/04 11:00:23;;;;;;;5.18;2.33;;;;;;;;;;5075977;28;20449;-70
2022/06/04 11:02:54;;;;;;;6.63;2.65;;;;;;;;;;5073469;28;20040;-70
2022/06/04 11:05:24;;;;;;;6.15;3.03;;;;;;;;;;5074496;28;20071;-70
2022/06/04 11:07:53;;;;;;;9.48;3.08;;;;;;;;;;5078570;28;20064;-70
2022/06/04 11:10:23;;;;;;;8.85;3.60;;;;;;;;;;5075289;28;20063;-70
2022/06/04 11:12:56;;;;;;;9.48;3.13;;;;;;;;;;5077574;28;20059;-71
2022/06/04 11:15:23;;;;;;;;;;;;;;;;;;5073875;28;20048;-71
2022/06/04 11:17:53;;;;;;;8.55;3.50;;;;;;;;;;5077023;28;19927;-71
2022/06/04 11:20:21;;;;;;;9.90;3.15;;;;;;;;;;5071026;28;20558;-71
2022/06/04 11:22:52;;;;;;;9.05;3.42;;;;;;;;;;5072265;28;20124;-71
2022/06/04 11:25:24;;;;;;;7.07;3.15;;;;;;;;;;5074612;28;20063;-71
2022/06/04 11:27:54;;;;;;;12.07;3.30;;;;;;;;;;5078259;28;20137;-70
2022/06/04 11:30:27;;;;;;;8.60;3.28;;;;;;;;;;5076751;28;20136;-71
2022/06/04 11:33:03;;;;;;;7.53;3.10;;;;;;;;;;5073691;28;20526;-71
2022/06/04 11:35:38;;;;;;;6.75;2.92;;;;;;;;;;5074185;28;20044;-71
2022/06/04 11:38:23;;;;;;;6.47;3.08;;;;;;;;;;5074903;28;20487;-71
2022/06/04 11:40:53;;;;;;;7.45;3.08;;;;;;;;;;5071135;28;20162;-71
2022/06/04 11:43:30;;;;;;;7.95;2.97;;;;;;;;;;5076594;28;20130;-71
2022/06/04 11:46:01;;;;;;;6.75;3.20;;;;;;;;;;5076740;28;20052;-71
2022/06/04 11:48:34;;;;;;;8.48;3.17;;;;;;;;;;5081934;28;20052;-71
2022/06/04 11:51:05;;;;;;;9.85;3.10;;;;;;;;;;5073820;28;20064;-71
2022/06/04 11:53:37;;;;;;;7.13;3.40;;;;;;;;;;5075242;28;20786;-71
2022/06/04 11:56:07;;;;;;;7.00;3.23;;;;;;;;;;5069939;28;20110;-71
2022/06/04 11:58:42;;;;;;;7.25;2.83;;;;;;;;;;5069031;28;20052;-71
2022/06/04 12:01:12;;;;;;;7.70;3.00;;;;;;;;;;5072726;28;20166;-71
2022/06/04 12:03:42;;;;;;;9.65;3.17;;;;;;;;;;5076498;28;20061;-71
2022/06/04 12:06:11;;;;;;;7.28;3.30;;;;;;;;;;5074203;28;20056;-71
2022/06/04 12:08:41;;;;;;;8.07;2.95;;;;;;;;;;5080468;28;20101;-71
2022/06/04 12:11:15;;;;;;;6.28;2.75;;;;;;;;;;5071630;28;20047;-71
2022/06/04 12:13:47;;;;;;;9.95;2.85;;;;;;;;;;5075709;28;20090;-71
2022/06/04 12:16:17;;;;;;;9.32;3.42;;;;;;;;;;5075301;28;20052;-71
2022/06/04 12:18:47;;;;;;;8.43;3.25;;;;;;;;;;5080273;28;20052;-71
2022/06/04 12:24:18;;;;;;;13.35;3.35;;;;;;;;;;5076079;28;20060;-71
2022/06/04 12:26:48;;;;;;;6.43;2.63;;;;;;;;;;5074324;28;20052;-71
2022/06/04 12:29:34;;;;;;;8.60;2.92;;;;;;;;;;5075860;28;20321;-71
2022/06/04 12:32:02;;;;;;;7.97;3.17;;;;;;;;;;5071105;28;20055;-71
2022/06/04 12:34:32;;;;;;;11.68;2.92;;;;;;;;;;5073077;28;20058;-71
2022/06/04 12:36:59;;;;;;;13.93;3.05;;;;;;;;;;5073619;28;20440;-71
2022/06/04 12:39:29;;;;;;;7.03;2.45;;;;;;;;;;5072646;28;20052;-71
2022/06/04 12:41:57;;;;;;;8.73;2.90;;;;;;;;;;5071741;28;20044;-71
2022/06/04 12:44:27;;;;;;;6.15;2.80;;;;;;;;;;5073324;28;20060;-71
2022/06/04 12:46:56;;;;;;;6.13;2.80;;;;;;;;;;5072051;28;20146;-71
2022/06/04 12:49:28;;;;;;;6.57;2.88;;;;;;;;;;5072695;28;20842;-71
2022/06/04 12:51:58;;;;;;;6.65;2.55;;;;;;;;;;5075880;28;20052;-71
2022/06/04 12:54:32;;;;;;;7.43;2.90;;;;;;;;;;5074490;28;20531;-71
2022/06/04 12:57:01;;;;;;;8.10;2.83;;;;;;;;;;5074707;28;20052;-71
2022/06/04 12:59:41;;;;;;;5.60;2.50;;;;;;;;;;5073730;28;20175;-71
2022/06/04 13:02:31;;;;;;;8.95;2.75;;;;;;;;;;5075177;28;20074;-71
2022/06/04 13:05:09;;;;;;;7.47;2.70;;;;;;;;;;5071875;28;20456;-71
2022/06/04 13:07:39;;;;;;;7.18;2.97;;;;;;;;;;5073727;28;20147;-71
2022/06/04 13:10:09;;;;;;;6.80;2.50;;;;;;;;;;5077742;28;20101;-71
2022/06/04 13:12:38;;;;;;;9.00;3.08;;;;;;;;;;5076075;28;20052;-71
2022/06/04 13:15:16;;;;;;;6.72;2.90;;;;;;;;;;5070185;28;20052;-71
2022/06/04 13:17:45;;;;;;;8.55;2.80;;;;;;;;;;5073437;28;20055;-71
2022/06/04 13:20:33;;;;;;;7.90;3.00;;;;;;;;;;5068737;28;20137;-71
2022/06/04 13:23:05;;;;;;;6.68;2.70;;;;;;;;;;5068889;28;20101;-71
2022/06/04 13:25:35;;;;;;;6.68;2.65;;;;;;;;;;5074814;28;20052;-71
2022/06/04 13:28:03;;;;;;;6.30;2.78;;;;;;;;;;5075854;28;20579;-71
2022/06/04 13:30:34;;;;;;;9.27;2.63;;;;;;;;;;5077367;28;20048;-71
2022/06/04 13:33:08;;;;;;;6.43;2.22;;;;;;;;;;5072043;28;20575;-71
2022/06/04 13:35:43;;;;;;;7.10;2.80;;;;;;;;;;5073462;28;20475;-71
2022/06/04 13:38:12;;;;;;;5.63;2.80;;;;;;;;;;5070114;28;20059;-71
2022/06/04 13:40:39;;;;;;;7.30;3.05;;;;;;;;;;5074368;28;20497;-71
2022/06/04 13:43:07;;;;;;;7.05;2.78;;;;;;;;;;5075199;28;20473;-71
2022/06/04 13:45:39;;;;;;;10.10;2.88;;;;;;;;;;5067699;28;20056;-71
2022/06/04 13:48:20;;;;;;;7.50;2.78;;;;;;;;;;5071510;28;20047;-71
2022/06/04 13:50:48;;;;;;;6.00;2.78;;;;;;;;;;5076396;28;20055;-71
2022/06/04 13:53:17;;;;;;;8.15;3.25;;;;;;;;;;5073021;28;20135;-71
2022/06/04 13:55:49;;;;;;;5.60;2.85;;;;;;;;;;5074331;28;20048;-71
2022/06/04 13:58:18;;;;;;;5.10;2.67;;;;;;;;;;5076764;28;20548;-71
2022/06/04 14:00:49;;;;;;;7.70;2.90;;;;;;;;;;5070155;28;20040;-71
2022/06/04 14:03:18;;;;;;;5.53;2.60;;;;;;;;;;5070675;28;20048;-71
2022/06/04 14:05:46;;;;;;;6.60;2.70;;;;;;;;;;5071744;28;20052;-71
2022/06/04 14:08:15;;;;;;;9.93;2.88;;;;;;;;;;5068005;28;20083;-71
2022/06/04 14:10:43;;;;;;;5.50;2.55;;;;;;;;;;5076821;28;20488;-71
2022/06/04 14:13:18;;;;;;;6.68;2.90;;;;;;;;;;5076437;28;20122;-71
2022/06/04 14:15:54;;;;;;;5.70;2.78;;;;;;;;;;5079388;28;20052;-71
2022/06/04 14:18:36;;;;;;;7.32;2.90;;;;;;;;;;5074377;28;20048;-71
2022/06/04 14:21:03;;;;;;;;;;;;;;;;;;5073805;28;20040;-71
2022/06/04 14:23:35;;;;;;;6.88;2.55;;;;;;;;;;5076279;28;20366;-71
2022/06/04 14:26:08;;;;;;;10.35;3.00;;;;;;;;;;5072229;28;20056;-71
2022/06/04 14:28:42;;;;;;;7.10;3.03;;;;;;;;;;5071186;28;20139;-71
2022/06/04 14:31:14;;;;;;;7.63;2.70;;;;;;;;;;5072321;28;20060;-71
2022/06/04 14:33:41;;;;;;;;;;;;;;;;;;5074968;28;20056;-71
2022/06/04 14:36:09;;;;;;;7.63;2.75;;;;;;;;;;5071865;28;19947;-71
2022/06/04 14:38:37;;;;;;;7.82;3.03;;;;;;;;;;5078212;28;20494;-71
2022/06/04 14:41:08;;;;;;;8.23;2.90;;;;;;;;;;5076487;28;20055;-71
2022/06/04 14:43:53;;;;;;;7.13;2.90;;;;;;;;;;5077109;28;20067;-71
2022/06/04 14:46:44;;;;;;;6.70;2.78;;;;;;;;;;5067971;28;20060;-71
2022/06/04 14:49:29;;;;;;;10.70;2.75;;;;;;;;;;5076478;28;20047;-71
2022/06/04 14:52:18;;;;;;;5.32;2.80;;;;;;;;;;5079152;28;20052;-71
2022/06/04 14:54:45;;;;;;;5.85;3.00;;;;;;;;;;5071972;28;20041;-71
2022/06/04 14:57:22;;;;;;;7.10;3.00;;;;;;;;;;5079705;28;20602;-71
2022/06/04 15:00:00;;;;;;;6.70;2.65;;;;;;;;;;5080413;28;20056;-71
2022/06/04 15:02:36;;;;;;;9.98;3.00;;;;;;;;;;5080599;28;20064;-71
2022/06/04 15:05:16;;;;;;;5.68;2.83;;;;;;;;;;5079679;28;20052;-71
2022/06/04 15:08:01;;;;;;;5.60;2.95;;;;;;;;;;5075310;28;20123;-71
2022/06/04 15:10:32;;;;;;;5.63;2.88;;;;;;;;;;5080687;28;20059;-71
2022/06/04 15:13:05;;;;;;;7.72;2.95;;;;;;;;;;5075938;28;20490;-71